Time;durP1;ratioP1;P1;durP2;ratioP2;P2;SDS_P1;SDS_P2;PMS_P1;PMS_P2;Temp;Humidity;BMP_temperature;BMP_pressure;BME280_temperature;BME280_humidity;BME280_pressure;Samples;Min_cycle;Max_cycle;Signal;HPM_P1;HPM_P2
2023/10/14 00:01:13;;;;;;;12.70;5.77;;;;;;;13.73;79.33;95055.28;5090293;28;20193;-46
2023/10/14 00:03:42;;;;;;;7.10;5.10;;;;;;;13.71;79.22;95053.81;5051503;28;20205;-42
2023/10/14 00:06:11;;;;;;;10.73;5.30;;;;;;;13.72;79.41;95058.78;5051218;28;20615;-43
2023/10/14 00:08:47;;;;;;;7.97;4.60;;;;;;;13.68;79.59;95054.09;5051065;28;20633;-42
2023/10/14 00:11:15;;;;;;;11.73;4.90;;;;;;;13.65;79.83;95052.66;5051046;28;20301;-43
2023/10/14 00:13:42;;;;;;;10.80;4.83;;;;;;;13.63;79.90;95054.53;5050738;28;20195;-43
2023/10/14 00:16:22;;;;;;;11.00;4.90;;;;;;;13.55;79.84;95050.13;5070302;28;21663;-43
2023/10/14 00:18:49;;;;;;;6.17;4.40;;;;;;;13.55;80.01;95046.75;5090566;28;20653;-44
2023/10/14 00:21:16;;;;;;;6.97;4.83;;;;;;;13.45;80.00;95028.03;5091438;28;20229;-42
2023/10/14 00:23:43;;;;;;;7.67;4.43;;;;;;;13.49;80.10;95043.03;5091098;28;20178;-44
2023/10/14 00:26:17;;;;;;;12.57;5.57;;;;;;;13.52;79.91;95044.50;5090606;28;20236;-44
2023/10/14 00:28:45;;;;;;;5.10;4.53;;;;;;;13.50;80.27;95038.69;5091082;28;20579;-43
2023/10/14 00:31:14;;;;;;;7.87;5.07;;;;;;;13.49;80.13;95037.88;5087249;28;20192;-43
2023/10/14 00:33:42;;;;;;;10.90;4.87;;;;;;;13.46;80.31;95033.03;5070217;28;20202;-43
2023/10/14 00:36:13;;;;;;;6.97;4.10;;;;;;;13.47;80.43;95026.97;5070207;28;20743;-45
2023/10/14 00:38:43;;;;;;;9.50;4.83;;;;;;;12.87;80.39;94941.13;5070503;28;20201;-45
2023/10/14 00:41:11;;;;;;;7.20;4.50;;;;;;;13.44;80.51;95034.16;5070308;28;20261;-44
2023/10/14 00:43:39;;;;;;;9.23;4.17;;;;;;;13.35;80.54;95017.84;5070587;28;20195;-44
2023/10/14 00:46:14;;;;;;;5.67;4.03;;;;;;;13.41;80.54;95040.38;5072273;28;20182;-44
2023/10/14 00:48:46;;;;;;;7.77;4.63;;;;;;;13.38;80.49;95030.38;5079244;28;20254;-44
2023/10/14 00:51:14;;;;;;;12.07;4.23;;;;;;;13.37;80.44;95028.78;5093554;28;20197;-43
2023/10/14 00:53:51;;;;;;;5.30;4.07;;;;;;;13.36;80.37;95027.16;5093453;28;20569;-45
2023/10/14 00:56:20;;;;;;;5.77;3.50;;;;;;;13.35;80.24;95027.31;5094318;28;20200;-43
2023/10/14 00:58:51;;;;;;;7.23;4.40;;;;;;;13.35;80.23;95027.31;5092989;28;20196;-45
2023/10/14 01:01:19;;;;;;;9.83;4.37;;;;;;;13.31;79.82;95021.66;5091092;28;20228;-44
2023/10/14 01:03:50;;;;;;;6.07;4.70;;;;;;;13.29;80.09;95010.72;5090705;28;20276;-44
2023/10/14 01:06:23;;;;;;;7.63;4.57;;;;;;;13.20;79.97;94994.38;5091435;28;20186;-45
2023/10/14 01:08:53;;;;;;;9.30;4.33;;;;;;;13.13;80.42;94990.81;5092447;28;20560;-43
2023/10/14 01:11:23;;;;;;;7.70;3.83;;;;;;;13.27;80.50;95010.06;5089792;28;20193;-43
2023/10/14 01:13:51;;;;;;;5.70;4.03;;;;;;;13.05;80.44;94976.13;5090032;28;20613;-42
2023/10/14 01:16:24;;;;;;;8.40;4.37;;;;;;;13.21;80.70;95003.72;5090108;28;20204;-43
2023/10/14 01:18:52;;;;;;;7.53;4.10;;;;;;;13.14;81.02;95000.13;5090042;28;20190;-43
2023/10/14 01:21:19;;;;;;;5.50;3.83;;;;;;;13.12;81.18;95003.78;5090152;28;20363;-43
2023/10/14 01:23:58;;;;;;;7.30;4.30;;;;;;;13.11;80.92;95004.72;5090111;28;20562;-42
2023/10/14 01:26:26;;;;;;;10.63;4.37;;;;;;;13.09;81.32;94991.25;5087881;28;20645;-42
2023/10/14 01:28:59;;;;;;;10.30;4.17;;;;;;;13.07;81.12;94992.16;5069964;28;20202;-44
2023/10/14 01:31:46;;;;;;;10.77;3.80;;;;;;;12.96;81.13;94974.44;5069422;28;20281;-44
2023/10/14 01:34:24;;;;;;;4.77;3.70;;;;;;;13.03;81.42;94990.84;5069499;28;20186;-43
2023/10/14 01:36:51;;;;;;;5.63;3.83;;;;;;;13.01;81.29;94986.81;5069736;28;20236;-44
2023/10/14 01:39:26;;;;;;;9.30;4.53;;;;;;;12.89;81.81;94978.53;5069679;28;20187;-45
2023/10/14 01:41:54;;;;;;;7.13;4.00;;;;;;;12.93;82.08;94990.13;5077029;28;20185;-46
2023/10/14 01:44:22;;;;;;;6.00;4.13;;;;;;;12.91;82.04;94992.03;5090496;28;20308;-43
2023/10/14 01:46:51;;;;;;;14.00;4.60;;;;;;;12.89;82.04;94991.34;5095175;28;20225;-44
2023/10/14 01:49:21;;;;;;;8.47;4.20;;;;;;;12.87;82.16;94989.91;5094345;28;20189;-44
2023/10/14 01:51:50;;;;;;;7.17;4.43;;;;;;;12.84;82.27;94990.97;5089672;28;20243;-46
2023/10/14 01:54:17;;;;;;;7.47;4.17;;;;;;;12.81;82.50;94986.94;5089586;28;20205;-44
2023/10/14 01:56:51;;;;;;;8.50;4.10;;;;;;;12.75;82.50;94982.38;5089192;28;20184;-43
2023/10/14 01:59:22;;;;;;;6.70;3.60;;;;;;;12.77;82.80;94992.50;5089371;28;20834;-44
2023/10/14 02:01:49;;;;;;;10.03;4.77;;;;;;;12.75;82.91;94989.28;5089783;28;20246;-42
2023/10/14 02:04:16;;;;;;;9.23;3.97;;;;;;;12.74;82.87;94990.25;5092372;28;20191;-43
2023/10/14 02:06:46;;;;;;;7.80;4.33;;;;;;;12.72;82.88;94982.66;5093499;28;20193;-42
2023/10/14 02:09:17;;;;;;;10.73;3.90;;;;;;;12.72;82.87;94982.66;5091653;28;20254;-44
2023/10/14 02:11:47;;;;;;;8.87;4.90;;;;;;;12.71;83.08;94982.81;5092085;28;20178;-42
2023/10/14 02:14:14;;;;;;;6.20;4.43;;;;;;;12.64;83.02;94974.06;5093082;28;20613;-44
2023/10/14 02:16:45;;;;;;;7.60;4.23;;;;;;;12.66;83.00;94985.81;5093652;28;20193;-45
2023/10/14 02:19:19;;;;;;;7.17;4.33;;;;;;;12.61;83.34;94979.47;5093632;28;20189;-44
2023/10/14 02:21:57;;;;;;;7.70;4.17;;;;;;;12.62;83.44;94975.97;5093746;28;20197;-44
2023/10/14 02:24:27;;;;;;;9.60;3.80;;;;;;;12.61;83.40;94976.91;5093121;28;20557;-43
2023/10/14 02:26:56;;;;;;;8.67;4.30;;;;;;;12.61;83.18;94971.78;5093835;28;20178;-43
2023/10/14 02:29:24;;;;;;;6.77;3.57;;;;;;;12.59;83.42;94977.06;5093369;28;20608;-42
2023/10/14 02:31:51;;;;;;;5.87;4.10;;;;;;;12.57;83.35;94968.72;5093150;28;20269;-43
2023/10/14 02:34:18;;;;;;;9.63;4.27;;;;;;;12.56;83.60;94972.22;5093189;28;20202;-43
2023/10/14 02:36:49;;;;;;;13.33;4.83;;;;;;;12.55;83.87;94966.28;5093207;28;20683;-42
2023/10/14 02:39:17;;;;;;;7.93;4.70;;;;;;;12.54;83.82;94971.56;5092219;28;20203;-44
2023/10/14 02:41:57;;;;;;;8.27;4.07;;;;;;;12.51;83.73;94964.94;5092889;28;20195;-44
2023/10/14 02:44:30;;;;;;;9.07;4.90;;;;;;;12.53;83.89;94967.38;5092693;28;20665;-44
2023/10/14 02:47:03;;;;;;;6.23;4.40;;;;;;;12.48;nan;94957.56;5092769;28;20236;-43
2023/10/14 02:49:36;;;;;;;8.03;5.23;;;;;;;12.50;84.05;94967.66;5092247;28;20622;-43
2023/10/14 02:52:08;;;;;;;12.27;4.47;;;;;;;12.48;84.25;94967.00;5092677;28;20198;-44
2023/10/14 02:54:36;;;;;;;9.17;4.57;;;;;;;12.33;84.57;94958.97;5073890;28;20186;-43
2023/10/14 02:57:12;;;;;;;12.13;4.70;;;;;;;12.40;84.53;94970.28;5072318;28;20182;-44
2023/10/14 02:59:44;;;;;;;9.17;5.13;;;;;;;12.40;84.58;94972.03;5072161;28;20276;-44
2023/10/14 03:02:15;;;;;;;8.17;4.00;;;;;;;12.35;84.60;94959.66;5072238;28;20198;-44
2023/10/14 03:04:48;;;;;;;10.57;4.63;;;;;;;12.37;84.69;94960.28;5071874;28;20675;-42
2023/10/14 03:07:22;;;;;;;7.67;4.43;;;;;;;12.36;84.76;94960.44;5072440;28;20619;-44
2023/10/14 03:09:48;;;;;;;8.03;4.90;;;;;;;12.31;85.09;94966.00;5071728;28;20705;-44
2023/10/14 03:12:18;;;;;;;6.63;4.43;;;;;;;12.28;85.28;94961.16;5072012;28;20241;-44
2023/10/14 03:14:48;;;;;;;9.03;4.93;;;;;;;12.26;85.36;94963.88;5071404;28;20187;-44
2023/10/14 03:17:23;;;;;;;7.03;4.80;;;;;;;12.21;85.53;94966.03;5072335;28;20269;-44
2023/10/14 03:19:53;;;;;;;9.37;4.83;;;;;;;12.14;85.31;94957.28;5071971;28;20276;-43
2023/10/14 03:22:23;;;;;;;8.07;5.10;;;;;;;12.20;85.70;94964.41;5071833;28;20216;-43
2023/10/14 03:24:51;;;;;;;7.13;4.80;;;;;;;12.12;86.04;94954.03;5071679;28;20717;-43
2023/10/14 03:27:20;;;;;;;10.37;5.20;;;;;;;12.09;85.86;94945.81;5072105;28;20308;-43
2023/10/14 03:29:54;;;;;;;6.90;4.50;;;;;;;12.14;86.18;94964.97;5071793;28;20674;-45
2023/10/14 03:32:32;;;;;;;6.17;4.17;;;;;;;12.11;86.23;94965.25;5072097;28;20605;-42
2023/10/14 03:34:59;;;;;;;9.60;4.90;;;;;;;12.09;86.43;94966.34;5071449;28;20282;-42
2023/10/14 03:37:26;;;;;;;9.60;3.77;;;;;;;12.06;86.43;94975.13;5072005;28;20198;-42
2023/10/14 03:40:35;;;;;;;6.87;5.20;;;;;;;12.03;86.50;94958.25;5072333;28;20274;-45
2023/10/14 03:42:52;;;;;;;9.50;5.17;;;;;;;12.01;86.67;94961.94;5073716;28;20198;-43
2023/10/14 03:45:22;;;;;;;8.20;5.03;;;;;;;11.98;86.73;94965.56;5076584;28;20182;-44
2023/10/14 03:47:52;;;;;;;6.57;4.63;;;;;;;11.99;86.70;94962.03;5071399;28;20313;-44
2023/10/14 03:50:23;;;;;;;13.33;4.90;;;;;;;11.93;86.87;94951.56;5071476;28;20194;-43
2023/10/14 03:52:53;;;;;;;16.93;5.60;;;;;;;11.74;86.69;94925.03;5071493;28;20307;-43
2023/10/14 03:55:24;;;;;;;8.43;5.23;;;;;;;11.96;87.06;94951.25;5071290;28;20217;-43
2023/10/14 03:57:53;;;;;;;12.70;5.23;;;;;;;11.93;87.04;94949.81;5071419;28;20202;-44
2023/10/14 04:00:36;;;;;;;7.60;4.13;;;;;;;11.88;87.33;94944.28;5071314;28;20229;-43
2023/10/14 04:03:11;;;;;;;10.93;4.70;;;;;;;11.85;87.24;94944.56;5070896;28;20191;-45
2023/10/14 04:05:41;;;;;;;11.73;5.27;;;;;;;11.85;87.47;94942.00;5070915;28;20194;-44
2023/10/14 04:08:09;;;;;;;9.63;5.33;;;;;;;11.83;87.56;94940.50;5071213;28;20187;-43
2023/10/14 04:10:43;;;;;;;10.07;5.10;;;;;;;11.80;87.78;94944.16;5071564;28;20291;-42
2023/10/14 04:13:14;;;;;;;6.77;5.00;;;;;;;11.80;87.84;94941.59;5070884;28;20230;-43
2023/10/14 04:15:52;;;;;;;10.53;5.40;;;;;;;11.79;87.74;94945.09;5076537;28;20548;-43
2023/10/14 04:18:24;;;;;;;9.07;5.50;;;;;;;11.81;87.77;94943.19;5090857;28;20284;-43
2023/10/14 04:21:12;;;;;;;8.03;5.60;;;;;;;11.80;87.88;94947.50;5090798;28;20189;-43
2023/10/14 04:23:59;;;;;;;9.93;4.83;;;;;;;11.59;87.83;94905.09;5086550;28;20661;-44
2023/10/14 04:26:30;;;;;;;15.13;6.23;;;;;;;11.79;87.75;94937.41;5071238;28;20285;-43
2023/10/14 04:28:58;;;;;;;10.00;5.10;;;;;;;11.79;87.94;94937.41;5088658;28;20642;-42
2023/10/14 04:31:39;;;;;;;8.57;5.23;;;;;;;11.79;87.78;94940.78;5090280;28;20653;-44
2023/10/14 04:34:09;;;;;;;10.30;5.90;;;;;;;11.81;87.74;94938.06;5090803;28;20232;-44
2023/10/14 04:36:44;;;;;;;14.47;5.23;;;;;;;11.81;88.00;94936.31;5091529;28;20234;-44
2023/10/14 04:39:25;;;;;;;7.37;5.57;;;;;;;11.84;87.82;94940.38;5077582;28;20213;-44
2023/10/14 04:42:21;;;;;;;14.00;5.70;;;;;;;11.87;87.90;94945.22;5086502;28;20281;-42
2023/10/14 04:44:54;;;;;;;13.87;5.70;;;;;;;11.88;87.98;94951.97;5090674;28;20280;-42
2023/10/14 04:47:35;;;;;;;8.87;5.73;;;;;;;11.91;88.03;94941.44;5090656;28;20322;-41
2023/10/14 04:50:09;;;;;;;15.37;5.50;;;;;;;11.89;87.96;94940.78;5090385;28;20182;-45
2023/10/14 04:52:37;;;;;;;9.10;5.37;;;;;;;11.76;88.06;94914.63;5090895;28;20197;-46
2023/10/14 04:55:18;;;;;;;15.70;6.30;;;;;;;11.91;88.03;94938.06;5088971;28;20248;-46
2023/10/14 04:58:05;;;;;;;11.70;5.93;;;;;;;11.91;88.24;94941.44;5090738;28;20193;-43
2023/10/14 05:00:33;;;;;;;13.50;5.77;;;;;;;11.92;88.31;94942.25;5078120;28;20613;-43
2023/10/14 05:03:02;;;;;;;10.10;5.60;;;;;;;11.94;88.10;94942.91;5070059;28;20201;-43
2023/10/14 05:05:32;;;;;;;9.47;5.50;;;;;;;11.95;88.04;94936.84;5069932;28;20715;-45
2023/10/14 05:08:02;;;;;;;9.77;5.23;;;;;;;12.02;87.67;94948.97;5069918;28;20654;-44
2023/10/14 05:10:29;;;;;;;16.33;5.20;;;;;;;12.07;87.71;94953.66;5069929;28;20190;-43
2023/10/14 05:12:56;;;;;;;10.93;5.87;;;;;;;12.11;87.91;94949.88;5069622;28;20209;-45
2023/10/14 05:15:26;;;;;;;11.23;5.07;;;;;;;12.15;87.74;94947.84;5070876;28;20197;-45
2023/10/14 05:18:00;;;;;;;11.40;5.63;;;;;;;12.04;87.34;94930.88;5069786;28;20280;-46
2023/10/14 05:20:47;;;;;;;13.97;5.37;;;;;;;11.68;87.29;94858.94;5086858;28;20194;-45
2023/10/14 05:23:19;;;;;;;16.50;5.80;;;;;;;12.39;86.94;94962.72;5089241;28;20262;-44
2023/10/14 05:25:48;;;;;;;19.20;6.77;;;;;;;12.46;86.92;94967.13;5089237;28;20205;-46
2023/10/14 05:28:16;;;;;;;15.67;5.80;;;;;;;12.56;86.47;94961.94;5089895;28;20190;-46
2023/10/14 05:30:48;;;;;;;24.70;7.13;;;;;;;12.60;86.27;94957.34;5089574;28;20268;-46
2023/10/14 05:33:15;;;;;;;15.20;5.70;;;;;;;12.48;85.89;94921.66;5089838;28;20221;-45
2023/10/14 05:35:44;;;;;;;16.03;7.73;;;;;;;12.83;85.50;94962.91;5089497;28;20546;-44
2023/10/14 05:38:11;;;;;;;18.20;6.70;;;;;;;12.94;85.24;94978.88;5087607;28;20192;-44
2023/10/14 05:40:39;;;;;;;13.57;6.00;;;;;;;12.98;84.98;94964.81;5089638;28;20657;-43
2023/10/14 05:43:06;;;;;;;13.17;6.50;;;;;;;13.13;84.37;94974.59;5089714;28;20641;-43
2023/10/14 05:45:35;;;;;;;9.77;5.60;;;;;;;13.13;83.91;94948.91;5089181;28;20221;-44
2023/10/14 05:48:07;;;;;;;18.40;5.67;;;;;;;13.42;83.14;94979.53;5089814;28;20217;-45
2023/10/14 05:50:36;;;;;;;15.47;5.57;;;;;;;13.51;82.61;94973.50;5089789;28;20590;-50
2023/10/14 05:53:07;;;;;;;15.10;5.77;;;;;;;13.73;81.64;94980.75;5089889;28;20193;-46
2023/10/14 05:55:34;;;;;;;14.10;5.60;;;;;;;13.90;80.56;94979.06;5089851;28;20278;-45
2023/10/14 05:58:01;;;;;;;22.57;6.03;;;;;;;14.14;79.80;94983.56;5078321;28;20285;-46
2023/10/14 06:00:29;;;;;;;19.13;5.97;;;;;;;14.40;79.02;94993.84;5089566;28;20284;-44
2023/10/14 06:02:57;;;;;;;13.70;5.70;;;;;;;14.59;77.71;94979.94;5090307;28;20194;-45
2023/10/14 06:05:25;;;;;;;12.77;6.23;;;;;;;14.86;76.37;94994.38;5087682;28;20182;-44
2023/10/14 06:07:59;;;;;;;17.13;6.77;;;;;;;14.74;75.34;94947.50;5086333;28;20700;-45
2023/10/14 06:10:29;;;;;;;15.07;6.00;;;;;;;15.03;75.15;94985.72;5089051;28;20185;-44
2023/10/14 06:12:57;;;;;;;10.50;6.03;;;;;;;15.10;74.54;94985.88;5072023;28;20198;-43
2023/10/14 06:15:25;;;;;;;14.07;6.73;;;;;;;15.14;74.62;94971.72;5071644;28;20197;-43
2023/10/14 06:17:54;;;;;;;10.63;6.30;;;;;;;15.19;74.31;94958.38;5074246;28;20205;-45
2023/10/14 06:20:21;;;;;;;27.57;7.80;;;;;;;15.60;72.93;94976.44;5082100;28;20202;-43
2023/10/14 06:22:48;;;;;;;16.07;6.90;;;;;;;15.85;71.42;94969.53;5069993;28;20672;-43
2023/10/14 06:25:20;;;;;;;10.87;7.07;;;;;;;16.28;69.89;94984.63;5069324;28;20183;-46
2023/10/14 06:27:49;;;;;;;13.30;6.97;;;;;;;16.60;68.36;94985.47;5075343;28;20183;-44
2023/10/14 06:30:20;;;;;;;19.03;8.97;;;;;;;16.83;67.52;94975.22;5072235;28;20197;-46
2023/10/14 06:32:53;;;;;;;11.67;7.17;;;;;;;17.11;65.93;94985.91;5069777;28;20186;-45
2023/10/14 06:35:20;;;;;;;16.53;8.53;;;;;;;17.38;65.32;94982.00;5069787;28;20301;-47
2023/10/14 06:37:48;;;;;;;14.50;8.07;;;;;;;17.59;64.60;94978.00;5078013;28;20227;-43
2023/10/14 06:40:18;;;;;;;16.63;8.80;;;;;;;17.86;64.03;94982.63;5083968;28;20270;-46
2023/10/14 06:42:49;;;;;;;15.40;8.83;;;;;;;18.03;63.10;94975.53;5069270;28;20191;-46
2023/10/14 06:45:22;;;;;;;18.20;9.07;;;;;;;18.34;62.14;94974.56;5069690;28;20182;-46
2023/10/14 06:47:51;;;;;;;27.70;10.07;;;;;;;18.60;60.90;94972.31;5068606;28;20324;-45
2023/10/14 06:50:23;;;;;;;19.13;8.67;;;;;;;18.88;59.96;94975.09;5067860;28;20192;-45
2023/10/14 06:52:53;;;;;;;22.40;9.23;;;;;;;19.11;58.89;94971.56;5070440;28;20684;-44
2023/10/14 06:55:22;;;;;;;17.37;9.27;;;;;;;19.25;58.49;94971.50;5070154;28;20309;-44
2023/10/14 06:57:53;;;;;;;15.17;7.83;;;;;;;19.44;58.03;94979.69;5069854;28;20214;-47
2023/10/14 07:00:29;;;;;;;17.63;8.27;;;;;;;19.53;57.50;94971.56;5071303;28;20190;-43
2023/10/14 07:02:57;;;;;;;11.73;7.30;;;;;;;19.66;57.06;94970.13;5081236;28;20718;-44
2023/10/14 07:05:24;;;;;;;14.43;8.27;;;;;;;19.79;56.75;94965.84;5070292;28;20290;-47
2023/10/14 07:07:50;;;;;;;15.97;8.43;;;;;;;19.97;56.17;94965.38;5070118;28;20186;-44
2023/10/14 07:10:17;;;;;;;14.30;8.07;;;;;;;20.16;55.63;94960.50;5078022;28;20273;-46
2023/10/14 07:12:44;;;;;;;16.90;8.23;;;;;;;20.29;55.02;94966.59;5088924;28;20243;-44
2023/10/14 07:15:13;;;;;;;13.63;7.13;;;;;;;20.41;54.51;94961.66;5089729;28;20213;-45
2023/10/14 07:17:43;;;;;;;21.20;8.98;;;;;;;20.52;53.96;94963.75;5077047;28;20210;-44
2023/10/14 07:20:13;;;;;;;13.83;8.53;;;;;;;20.56;54.21;94958.97;5070020;28;20195;-45
2023/10/14 07:22:42;;;;;;;16.73;7.63;;;;;;;20.66;53.83;94963.81;5071938;28;20179;-46
2023/10/14 07:25:10;;;;;;;19.20;9.87;;;;;;;20.89;53.84;94960.91;5086487;28;20186;-45
2023/10/14 07:27:38;;;;;;;22.00;8.87;;;;;;;20.97;53.07;94926.91;5049743;28;20187;-45
2023/10/14 07:30:13;;;;;;;12.93;8.43;;;;;;;21.43;52.25;94955.66;5049742;28;20456;-53
2023/10/14 07:32:44;;;;;;;19.27;9.18;;;;;;;21.74;50.77;94946.47;5051797;28;20201;-43
2023/10/14 07:35:13;;;;;;;17.13;9.52;;;;;;;21.76;50.09;94942.69;5071781;28;20226;-44
2023/10/14 07:37:43;;;;;;;17.25;9.15;;;;;;;21.75;50.54;94953.28;5071871;28;20201;-45
2023/10/14 07:40:22;;;;;;;19.85;9.15;;;;;;;21.74;50.46;94946.47;5083081;28;20196;-47
2023/10/14 07:42:53;;;;;;;20.25;9.45;;;;;;;21.71;50.49;94941.66;5091787;28;20190;-45
2023/10/14 07:45:28;;;;;;;18.23;11.27;;;;;;;21.67;50.42;94938.66;5090192;28;20838;-46
2023/10/14 07:47:57;;;;;;;19.20;12.07;;;;;;;21.76;50.12;94939.25;5091672;28;20232;-45
2023/10/14 07:50:24;;;;;;;18.50;11.68;;;;;;;21.83;50.29;94936.66;5091838;28;20645;-46
2023/10/14 07:52:51;;;;;;;17.50;12.55;;;;;;;21.85;50.27;94938.06;5091812;28;20205;-46
2023/10/14 07:55:22;;;;;;;19.20;12.82;;;;;;;21.84;50.40;94927.84;5092392;28;20221;-46
2023/10/14 07:57:49;;;;;;;19.85;13.30;;;;;;;21.89;50.33;94928.03;5092079;28;20201;-44
2023/10/14 08:00:17;;;;;;;23.92;16.85;;;;;;;21.93;49.59;94924.03;5091603;28;20197;-46
2023/10/14 08:02:44;;;;;;;26.77;17.83;;;;;;;21.79;49.81;94894.59;5091445;28;20194;-45
2023/10/14 08:05:12;;;;;;;21.77;13.02;;;;;;;22.18;49.17;94927.63;5091638;28;20190;-44
2023/10/14 08:07:42;;;;;;;23.65;12.27;;;;;;;22.18;48.71;94922.41;5091413;28;20194;-44
2023/10/14 08:10:21;;;;;;;16.48;11.77;;;;;;;22.13;49.24;94914.41;5091348;28;20185;-45
2023/10/14 08:12:50;;;;;;;26.02;12.10;;;;;;;22.10;49.61;94924.41;5090988;28;20200;-44
2023/10/14 08:15:18;;;;;;;19.52;11.45;;;;;;;22.27;49.36;94925.59;5091129;28;20277;-44
2023/10/14 08:17:45;;;;;;;22.80;11.93;;;;;;;22.58;48.80;94917.06;5091145;28;20282;-46
2023/10/14 08:20:14;;;;;;;22.15;12.27;;;;;;;22.11;48.32;94840.88;5091362;28;20189;-44
2023/10/14 08:22:46;;;;;;;21.50;13.10;;;;;;;22.59;48.55;94910.88;5091440;28;20220;-45
2023/10/14 08:25:13;;;;;;;15.60;11.30;;;;;;;22.72;48.37;94910.81;5091187;28;20258;-44
2023/10/14 08:27:40;;;;;;;14.85;10.40;;;;;;;22.74;47.64;94902.78;5090581;28;20247;-45
2023/10/14 08:30:11;;;;;;;15.05;11.68;;;;;;;22.76;46.98;94906.78;5091196;28;20186;-44
2023/10/14 08:32:40;;;;;;;19.60;9.60;;;;;;;22.51;47.53;94867.59;5090918;28;20192;-43
2023/10/14 08:35:15;;;;;;;17.58;10.43;;;;;;;22.72;46.90;94897.00;5090998;28;20226;-47
2023/10/14 08:37:48;;;;;;;14.57;9.68;;;;;;;22.73;47.10;94893.38;5090908;28;20189;-45
2023/10/14 08:40:19;;;;;;;15.60;9.57;;;;;;;22.53;47.23;94860.34;5090881;28;20221;-44
2023/10/14 08:42:50;;;;;;;18.60;9.18;;;;;;;22.70;47.01;94891.16;5090877;28;20193;-44
2023/10/14 08:45:19;;;;;;;21.88;8.50;;;;;;;22.69;47.27;94879.16;5090894;28;20212;-45
2023/10/14 08:47:50;;;;;;;11.40;7.50;;;;;;;22.78;47.14;94872.69;5090571;28;20296;-45
2023/10/14 08:50:18;;;;;;;14.20;7.45;;;;;;;22.89;47.34;94874.63;5090649;28;20583;-44
2023/10/14 08:52:49;;;;;;;13.60;8.10;;;;;;;22.93;46.92;94865.41;5092063;28;20244;-43
2023/10/14 08:55:20;;;;;;;17.90;10.88;;;;;;;22.95;46.94;94878.22;5092677;28;20554;-45
2023/10/14 08:57:47;;;;;;;15.65;6.82;;;;;;;22.96;47.08;94870.19;5090325;28;20907;-46
2023/10/14 09:00:19;;;;;;;12.77;5.88;;;;;;;22.75;46.31;94858.25;5090268;28;20255;-46
2023/10/14 09:02:50;;;;;;;9.05;6.18;;;;;;;22.68;47.02;94856.69;5089967;28;20247;-45
2023/10/14 09:05:18;;;;;;;10.18;6.82;;;;;;;22.65;47.21;94860.50;5090187;28;20193;-45
2023/10/14 09:07:49;;;;;;;11.07;6.95;;;;;;;22.72;47.51;94863.09;5089691;28;20178;-46
2023/10/14 09:10:18;;;;;;;13.40;6.15;;;;;;;22.75;47.32;94857.44;5090121;28;20273;-47
2023/10/14 09:12:57;;;;;;;11.27;6.70;;;;;;;22.78;47.52;94857.81;5089295;28;20722;-44
2023/10/14 09:15:25;;;;;;;17.20;6.45;;;;;;;22.88;46.96;94856.56;5090086;28;20729;-45
2023/10/14 09:17:55;;;;;;;15.85;6.35;;;;;;;22.88;46.09;94857.38;5089729;28;20197;-44
2023/10/14 09:20:30;;;;;;;13.25;5.78;;;;;;;22.84;46.55;94845.78;5090053;28;20295;-43
2023/10/14 09:23:24;;;;;;;9.52;5.63;;;;;;;22.92;46.75;94837.72;5089702;28;20569;-43
2023/10/14 09:25:52;;;;;;;13.43;5.38;;;;;;;22.87;46.45;94834.13;5089914;28;20209;-46
2023/10/14 09:28:21;;;;;;;9.63;5.55;;;;;;;22.95;46.31;94831.28;5089656;28;20281;-48
2023/10/14 09:30:50;;;;;;;8.55;4.93;;;;;;;22.95;46.71;94826.88;5089877;28;20619;-52
2023/10/14 09:33:20;;;;;;;10.05;5.75;;;;;;;22.98;46.61;94817.81;5089502;28;20221;-47
2023/10/14 09:35:49;;;;;;;11.48;5.63;;;;;;;22.95;46.73;94802.59;5089816;28;20225;-46
2023/10/14 09:38:21;;;;;;;16.20;6.53;;;;;;;23.04;46.66;94806.53;5089144;28;20193;-45
2023/10/14 09:40:54;;;;;;;18.90;6.50;;;;;;;23.13;46.01;94802.66;5089577;28;20653;-44
2023/10/14 09:43:23;;;;;;;16.15;6.10;;;;;;;23.19;46.18;94801.81;5089370;28;20200;-45
2023/10/14 09:45:55;;;;;;;12.32;5.00;;;;;;;23.27;45.70;94785.06;5089695;28;20288;-45
2023/10/14 09:48:24;;;;;;;8.65;4.80;;;;;;;23.27;45.03;94783.28;5089468;28;20193;-45
2023/10/14 09:50:54;;;;;;;13.43;5.90;;;;;;;23.33;45.77;94791.25;5089817;28;20193;-44
2023/10/14 09:53:27;;;;;;;11.68;4.75;;;;;;;23.33;45.17;94775.59;5089092;28;20597;-43
2023/10/14 09:55:55;;;;;;;10.75;5.38;;;;;;;23.35;45.49;94779.59;5089432;28;20317;-45
2023/10/14 09:58:24;;;;;;;8.43;5.07;;;;;;;23.42;45.32;94767.28;5089123;28;20592;-45
2023/10/14 10:00:51;;;;;;;6.18;4.72;;;;;;;23.50;45.16;94766.22;5089412;28;20208;-44
2023/10/14 10:03:21;;;;;;;9.32;4.97;;;;;;;23.58;45.01;94762.53;5089481;28;20190;-45
2023/10/14 10:06:00;;;;;;;11.60;4.88;;;;;;;23.61;45.12;94756.84;5089566;28;20196;-44
2023/10/14 10:08:56;;;;;;;13.07;4.40;;;;;;;23.63;44.38;94752.22;5089706;28;20182;-44
2023/10/14 10:11:24;;;;;;;12.85;5.00;;;;;;;23.58;44.75;94732.00;5089581;28;20567;-43
2023/10/14 10:13:52;;;;;;;11.45;4.40;;;;;;;23.73;44.48;94742.88;5089768;28;20186;-44
2023/10/14 10:16:21;;;;;;;9.73;5.40;;;;;;;23.83;44.25;94744.97;5089284;28;20212;-45
2023/10/14 10:19:02;;;;;;;9.80;4.57;;;;;;;23.91;43.80;94738.66;5089376;28;20189;-44
2023/10/14 10:21:30;;;;;;;15.35;5.22;;;;;;;23.97;44.16;94733.38;5089921;28;20185;-47
2023/10/14 10:24:18;;;;;;;11.13;4.90;;;;;;;24.01;43.87;94724.09;5092505;28;20186;-46
2023/10/14 10:27:10;;;;;;;12.18;4.90;;;;;;;24.11;43.55;94727.97;5093523;28;20691;-46
2023/10/14 10:29:45;;;;;;;9.35;4.75;;;;;;;24.20;43.16;94713.59;5093650;28;20189;-46
2023/10/14 10:32:17;;;;;;;7.28;4.30;;;;;;;24.24;43.18;94707.69;5102112;28;20193;-46
2023/10/14 10:35:16;;;;;;;10.52;4.55;;;;;;;24.29;42.99;94701.81;5102400;28;20221;-47
2023/10/14 10:37:47;;;;;;;11.82;4.57;;;;;;;24.40;43.19;94689.84;5093280;28;20212;-46
2023/10/14 10:40:22;;;;;;;6.20;3.78;;;;;;;24.39;42.80;94683.78;5092747;28;20185;-44
2023/10/14 10:42:53;;;;;;;10.27;4.10;;;;;;;24.44;42.14;94685.75;5093465;28;20277;-44
2023/10/14 10:45:21;;;;;;;10.90;4.93;;;;;;;24.55;42.23;94678.94;5092841;28;20748;-45
2023/10/14 10:47:54;;;;;;;6.20;3.88;;;;;;;24.63;41.26;94679.41;5092819;28;20225;-44
2023/10/14 10:50:22;;;;;;;7.32;3.92;;;;;;;24.65;41.51;94666.88;5092688;28;20641;-45
2023/10/14 10:53:25;;;;;;;6.60;4.28;;;;;;;24.67;41.21;94669.31;5092831;28;20277;-46
2023/10/14 10:55:53;;;;;;;7.93;3.58;;;;;;;24.67;40.92;94664.06;5092749;28;20700;-46
2023/10/14 10:58:21;;;;;;;6.25;3.83;;;;;;;24.72;40.80;94659.75;5092640;28;20200;-47
2023/10/14 11:00:49;;;;;;;8.63;3.90;;;;;;;24.80;40.61;94650.78;5092949;28;20604;-44
2023/10/14 11:03:17;;;;;;;11.00;4.15;;;;;;;24.80;40.43;94648.16;5092344;28;20197;-45
2023/10/14 11:05:46;;;;;;;9.35;3.58;;;;;;;24.86;39.33;94644.63;5092619;28;20198;-46
2023/10/14 11:08:15;;;;;;;9.02;3.47;;;;;;;24.90;39.79;94639.72;5092703;28;20190;-45
2023/10/14 11:10:43;;;;;;;8.18;4.03;;;;;;;24.77;40.18;94606.75;5092772;28;20190;-44
2023/10/14 11:13:13;;;;;;;7.60;4.68;;;;;;;24.92;40.38;94630.66;5092571;28;20293;-45
2023/10/14 11:15:43;;;;;;;6.63;3.88;;;;;;;25.00;40.64;94626.91;5092832;28;20224;-47
2023/10/14 11:18:10;;;;;;;5.28;3.22;;;;;;;25.05;39.09;94627.00;5093564;28;20209;-45
2023/10/14 11:20:40;;;;;;;5.00;3.53;;;;;;;25.07;39.31;94619.69;5093884;28;20217;-45
2023/10/14 11:23:09;;;;;;;7.60;3.55;;;;;;;25.15;39.44;94622.00;5092201;28;20202;-45
2023/10/14 11:25:40;;;;;;;4.47;3.22;;;;;;;25.19;39.18;94612.66;5092484;28;20228;-45
2023/10/14 11:28:07;;;;;;;6.53;3.60;;;;;;;25.23;39.55;94613.78;5092519;28;20193;-50
2023/10/14 11:30:41;;;;;;;7.35;3.78;;;;;;;25.29;39.40;94614.69;5092394;28;20224;-46
2023/10/14 11:33:10;;;;;;;7.20;3.53;;;;;;;25.29;39.11;94606.84;5091747;28;20203;-45
2023/10/14 11:35:38;;;;;;;7.03;3.60;;;;;;;25.25;39.49;94614.34;5091474;28;20308;-45
2023/10/14 11:38:07;;;;;;;7.10;3.63;;;;;;;25.25;38.60;94605.69;5091993;28;20194;-48
2023/10/14 11:40:35;;;;;;;9.77;3.78;;;;;;;25.19;38.82;94596.16;5091713;28;20540;-46
2023/10/14 11:43:03;;;;;;;9.10;3.22;;;;;;;25.27;38.33;94603.66;5091822;28;20200;-45
2023/10/14 11:45:31;;;;;;;7.85;3.30;;;;;;;25.20;38.48;94595.94;5091709;28;20200;-46
2023/10/14 11:48:00;;;;;;;4.18;3.42;;;;;;;25.21;38.48;94594.09;5091803;28;20252;-45